Time;durP1;ratioP1;P1;durP2;ratioP2;P2;SDS_P1;SDS_P2;PMS_P1;PMS_P2;Temp;Humidity;BMP_temperature;BMP_pressure;BME280_temperature;BME280_humidity;BME280_pressure;Samples;Min_cycle;Max_cycle;Signal;HPM_P1;HPM_P2
2022/10/05 00:02:14;;;;;;;18.75;10.68;;;;;;;;;;4966107;28;20639;-71
2022/10/05 00:04:40;;;;;;;18.00;10.73;;;;;;;;;;4965624;28;20030;-71
2022/10/05 00:07:08;;;;;;;18.20;11.02;;;;;;;;;;4970529;28;20037;-71
2022/10/05 00:09:35;;;;;;;14.75;10.20;;;;;;;;;;4969658;28;20034;-71
2022/10/05 00:12:13;;;;;;;17.25;11.15;;;;;;;;;;4969528;28;20031;-71
2022/10/05 00:14:39;;;;;;;15.63;10.18;;;;;;;;;;4969248;28;20033;-71
2022/10/05 00:17:05;;;;;;;16.77;10.30;;;;;;;;;;4968544;28;20137;-71
2022/10/05 00:19:36;;;;;;;13.60;9.43;;;;;;;;;;4968566;28;20113;-70
2022/10/05 00:22:10;;;;;;;15.18;9.70;;;;;;;;;;4968247;28;20034;-73
2022/10/05 00:24:37;;;;;;;14.10;9.88;;;;;;;;;;4969772;28;20093;-71
2022/10/05 00:27:20;;;;;;;14.77;9.45;;;;;;;;;;4968817;28;20030;-71
2022/10/05 00:29:46;;;;;;;13.75;9.30;;;;;;;;;;4969213;28;20033;-71
2022/10/05 00:32:12;;;;;;;11.80;9.05;;;;;;;;;;4966385;28;20081;-71
2022/10/05 00:34:38;;;;;;;12.52;8.57;;;;;;;;;;4966093;28;20035;-71
2022/10/05 00:37:05;;;;;;;11.90;8.85;;;;;;;;;;4968680;28;20118;-71
2022/10/05 00:39:32;;;;;;;15.18;8.80;;;;;;;;;;4970010;28;20089;-71
2022/10/05 00:42:16;;;;;;;11.07;7.72;;;;;;;;;;4969938;28;20126;-73
2022/10/05 00:44:46;;;;;;;11.15;8.02;;;;;;;;;;4969336;28;20433;-72
2022/10/05 00:47:12;;;;;;;13.70;10.20;;;;;;;;;;4967707;28;20082;-71
2022/10/05 00:49:57;;;;;;;11.60;7.95;;;;;;;;;;4969152;28;20035;-72
2022/10/05 00:52:32;;;;;;;14.07;8.55;;;;;;;;;;4964769;28;20034;-72
2022/10/05 00:55:02;;;;;;;13.80;8.00;;;;;;;;;;4967417;28;20113;-72
2022/10/05 00:57:52;;;;;;;12.63;8.05;;;;;;;;;;4968441;28;20132;-71
2022/10/05 01:00:21;;;;;;;15.38;7.85;;;;;;;;;;4974880;28;20145;-72
2022/10/05 01:03:10;;;;;;;13.35;7.43;;;;;;;;;;4968802;28;20027;-70
2022/10/05 01:05:55;;;;;;;8.98;6.70;;;;;;;;;;4969933;28;20101;-72
2022/10/05 01:08:35;;;;;;;10.65;7.30;;;;;;;;;;4969451;28;20019;-71
2022/10/05 01:11:11;;;;;;;11.73;6.50;;;;;;;;;;4967400;28;20031;-72
2022/10/05 01:13:56;;;;;;;11.85;6.75;;;;;;;;;;4970050;28;20504;-70
2022/10/05 01:16:28;;;;;;;9.50;6.70;;;;;;;;;;4967216;28;20043;-71
2022/10/05 01:19:16;;;;;;;15.57;6.55;;;;;;;;;;4968782;28;20034;-71
2022/10/05 01:21:50;;;;;;;11.25;6.65;;;;;;;;;;4969723;28;20027;-71
2022/10/05 01:24:19;;;;;;;10.77;6.43;;;;;;;;;;4969288;28;20050;-71
2022/10/05 01:26:45;;;;;;;11.27;7.10;;;;;;;;;;4964928;28;20058;-71
2022/10/05 01:29:16;;;;;;;12.48;6.40;;;;;;;;;;4969140;28;20101;-72
2022/10/05 01:31:54;;;;;;;11.60;6.78;;;;;;;;;;4968580;28;20044;-71
2022/10/05 01:34:32;;;;;;;11.85;7.35;;;;;;;;;;4967114;28;20034;-72
2022/10/05 01:37:03;;;;;;;12.48;7.38;;;;;;;;;;4969399;28;20509;-71
2022/10/05 01:39:29;;;;;;;14.52;8.45;;;;;;;;;;4968052;28;20027;-71
2022/10/05 01:42:01;;;;;;;15.98;7.10;;;;;;;;;;4963907;28;20489;-71
2022/10/05 01:44:40;;;;;;;17.50;7.90;;;;;;;;;;4968017;28;20118;-71
2022/10/05 01:47:09;;;;;;;15.35;7.53;;;;;;;;;;4969709;28;20463;-71
2022/10/05 01:49:41;;;;;;;14.23;8.18;;;;;;;;;;4970295;28;20031;-71
2022/10/05 01:52:16;;;;;;;17.48;8.65;;;;;;;;;;4966615;28;20030;-71
2022/10/05 01:55:00;;;;;;;14.82;8.82;;;;;;;;;;4968680;28;20023;-71
2022/10/05 01:57:26;;;;;;;15.65;10.13;;;;;;;;;;4966592;28;20047;-70
2022/10/05 01:59:52;;;;;;;14.80;10.18;;;;;;;;;;4966808;28;20030;-71
2022/10/05 02:02:21;;;;;;;14.05;10.23;;;;;;;;;;4966611;28;20640;-70
2022/10/05 02:04:50;;;;;;;17.40;10.45;;;;;;;;;;4968625;28;20194;-71
2022/10/05 02:07:22;;;;;;;19.58;11.15;;;;;;;;;;4965954;28;20476;-71
2022/10/05 02:09:53;;;;;;;23.52;11.38;;;;;;;;;;4969539;28;20538;-71
2022/10/05 02:12:21;;;;;;;19.13;10.93;;;;;;;;;;4967924;28;20034;-72
2022/10/05 02:14:49;;;;;;;17.42;10.68;;;;;;;;;;4967889;28;20037;-72
2022/10/05 02:17:25;;;;;;;19.58;11.48;;;;;;;;;;4972118;28;20293;-71
2022/10/05 02:19:56;;;;;;;21.63;12.38;;;;;;;;;;4967593;28;20058;-71
2022/10/05 02:22:27;;;;;;;20.48;12.10;;;;;;;;;;4969356;28;20027;-72
2022/10/05 02:24:58;;;;;;;17.98;12.80;;;;;;;;;;4966710;28;20031;-71
2022/10/05 02:27:27;;;;;;;20.98;13.80;;;;;;;;;;4968293;28;20480;-72
2022/10/05 02:29:54;;;;;;;31.27;13.77;;;;;;;;;;4967586;28;20539;-72
2022/10/05 02:32:25;;;;;;;21.13;14.15;;;;;;;;;;4963186;28;20102;-73
2022/10/05 02:34:51;;;;;;;19.60;14.00;;;;;;;;;;4966919;28;20126;-72
2022/10/05 02:37:39;;;;;;;24.38;14.23;;;;;;;;;;4964747;28;20038;-72
2022/10/05 02:40:08;;;;;;;21.73;14.77;;;;;;;;;;4967123;28;20030;-72
2022/10/05 02:42:34;;;;;;;24.73;14.40;;;;;;;;;;4966077;28;20030;-72
2022/10/05 02:45:07;;;;;;;21.27;13.55;;;;;;;;;;4968114;28;20026;-72
2022/10/05 02:47:42;;;;;;;21.63;14.20;;;;;;;;;;4967774;28;20479;-72
2022/10/05 02:50:25;;;;;;;21.63;13.85;;;;;;;;;;4966276;28;20038;-72
2022/10/05 02:53:12;;;;;;;21.20;13.75;;;;;;;;;;4966439;28;20066;-73
2022/10/05 02:55:41;;;;;;;26.38;15.45;;;;;;;;;;4968951;28;20038;-72
2022/10/05 02:58:19;;;;;;;23.98;14.38;;;;;;;;;;4968785;28;20022;-72
2022/10/05 03:00:48;;;;;;;22.52;14.02;;;;;;;;;;4963733;28;20575;-72
2022/10/05 03:03:22;;;;;;;20.90;14.10;;;;;;;;;;4966431;28;20026;-72
2022/10/05 03:05:53;;;;;;;24.63;15.07;;;;;;;;;;4965962;28;20045;-72
2022/10/05 03:08:27;;;;;;;24.80;13.82;;;;;;;;;;4965452;28;20029;-72
2022/10/05 03:11:14;;;;;;;20.90;14.00;;;;;;;;;;4966048;28;20547;-71
2022/10/05 03:13:47;;;;;;;27.02;14.90;;;;;;;;;;4966286;28;20122;-72
2022/10/05 03:16:13;;;;;;;27.70;14.98;;;;;;;;;;4966850;28;20035;-71
2022/10/05 03:18:48;;;;;;;23.95;13.77;;;;;;;;;;4967962;28;20376;-71
2022/10/05 03:21:14;;;;;;;26.13;15.10;;;;;;;;;;4966291;28;20034;-71
2022/10/05 03:23:46;;;;;;;22.90;13.30;;;;;;;;;;4967187;28;20373;-72
2022/10/05 03:26:15;;;;;;;31.30;14.27;;;;;;;;;;4965733;28;20026;-71
2022/10/05 03:28:59;;;;;;;21.10;13.38;;;;;;;;;;4964856;28;20026;-71
2022/10/05 03:31:32;;;;;;;24.40;13.43;;;;;;;;;;4964571;28;20039;-71
2022/10/05 03:33:58;;;;;;;24.00;13.75;;;;;;;;;;4966677;28;20043;-71
2022/10/05 03:36:32;;;;;;;26.75;14.65;;;;;;;;;;4967213;28;20042;-71
2022/10/05 03:39:01;;;;;;;23.30;12.70;;;;;;;;;;4967682;28;20465;-71
2022/10/05 03:41:40;;;;;;;24.30;12.48;;;;;;;;;;4964865;28;20031;-71
2022/10/05 03:44:15;;;;;;;25.45;12.88;;;;;;;;;;4967771;28;20042;-71
2022/10/05 03:46:46;;;;;;;23.27;12.90;;;;;;;;;;4964868;28;20484;-72
2022/10/05 03:49:12;;;;;;;;;;;;;;;;;;4965704;28;20027;-72
2022/10/05 03:51:40;;;;;;;20.05;11.10;;;;;;;;;;4967631;28;20430;-71
2022/10/05 03:54:25;;;;;;;18.45;11.70;;;;;;;;;;4967119;28;20089;-71
2022/10/05 03:56:54;;;;;;;20.17;11.93;;;;;;;;;;4966281;28;20049;-72
2022/10/05 03:59:23;;;;;;;18.58;12.20;;;;;;;;;;4965871;28;20126;-71
2022/10/05 04:02:05;;;;;;;21.40;11.20;;;;;;;;;;4961924;28;20066;-72
2022/10/05 04:04:40;;;;;;;19.08;11.23;;;;;;;;;;4966195;28;20030;-72
2022/10/05 04:07:11;;;;;;;19.08;11.63;;;;;;;;;;4967224;28;20030;-73
2022/10/05 04:09:40;;;;;;;18.13;12.10;;;;;;;;;;4967758;28;20038;-70
2022/10/05 04:12:11;;;;;;;19.73;12.07;;;;;;;;;;4965392;28;20053;-72
2022/10/05 04:14:41;;;;;;;18.98;11.05;;;;;;;;;;4967603;28;20035;-72
2022/10/05 04:17:12;;;;;;;16.67;11.27;;;;;;;;;;4966128;28;20042;-72
2022/10/05 04:19:44;;;;;;;17.23;11.18;;;;;;;;;;4968181;28;20034;-72
2022/10/05 04:22:10;;;;;;;28.48;10.90;;;;;;;;;;4967872;28;20501;-72
2022/10/05 04:24:53;;;;;;;21.50;11.20;;;;;;;;;;4969807;28;20030;-71
2022/10/05 04:27:24;;;;;;;15.23;9.95;;;;;;;;;;4969399;28;20117;-71
2022/10/05 04:29:57;;;;;;;17.95;10.50;;;;;;;;;;4965587;28;20034;-71
2022/10/05 04:32:41;;;;;;;16.67;9.82;;;;;;;;;;4968389;28;21453;-71
2022/10/05 04:35:07;;;;;;;17.80;10.20;;;;;;;;;;4970027;28;20043;-71
2022/10/05 04:37:42;;;;;;;14.82;9.10;;;;;;;;;;4970570;28;20031;-70
2022/10/05 04:40:16;;;;;;;16.30;9.18;;;;;;;;;;4968084;28;20022;-71
2022/10/05 04:42:58;;;;;;;20.42;8.10;;;;;;;;;;4966903;28;20026;-71
2022/10/05 04:45:36;;;;;;;10.45;7.28;;;;;;;;;;4967561;28;20360;-71
2022/10/05 04:48:02;;;;;;;12.55;7.88;;;;;;;;;;4965238;28;20564;-72
2022/10/05 04:50:47;;;;;;;11.55;7.03;;;;;;;;;;4967338;28;20031;-72
2022/10/05 04:53:35;;;;;;;16.60;8.07;;;;;;;;;;4968603;28;20030;-72
2022/10/05 04:56:09;;;;;;;13.82;6.75;;;;;;;;;;4967712;28;20047;-72
2022/10/05 04:58:41;;;;;;;10.07;6.05;;;;;;;;;;4970311;28;20038;-70
2022/10/05 05:01:13;;;;;;;9.50;5.60;;;;;;;;;;4966972;28;20065;-71
2022/10/05 05:03:48;;;;;;;9.73;6.10;;;;;;;;;;4965838;28;20034;-72
2022/10/05 05:06:24;;;;;;;7.75;5.22;;;;;;;;;;4968838;28;20031;-71
2022/10/05 05:09:08;;;;;;;8.20;4.90;;;;;;;;;;4967124;28;20043;-71
2022/10/05 05:11:44;;;;;;;6.35;4.30;;;;;;;;;;4974538;28;20149;-71
2022/10/05 05:14:20;;;;;;;42.75;5.63;;;;;;;;;;4973081;28;20029;-71
2022/10/05 05:16:53;;;;;;;8.38;3.50;;;;;;;;;;4968596;28;20089;-71
2022/10/05 05:19:22;;;;;;;6.00;3.80;;;;;;;;;;4969067;28;20033;-71
2022/10/05 05:22:07;;;;;;;14.32;3.95;;;;;;;;;;4965912;28;20038;-71
2022/10/05 05:24:33;;;;;;;6.63;3.42;;;;;;;;;;4968967;28;20027;-71
2022/10/05 05:27:17;;;;;;;6.88;3.83;;;;;;;;;;4968725;28;21069;-71
2022/10/05 05:29:51;;;;;;;6.93;3.25;;;;;;;;;;4963392;28;20027;-71
2022/10/05 05:32:20;;;;;;;5.55;3.38;;;;;;;;;;4967897;28;20043;-71
2022/10/05 05:34:49;;;;;;;10.63;2.88;;;;;;;;;;4968493;28;20387;-70
2022/10/05 05:37:28;;;;;;;14.05;3.20;;;;;;;;;;4967549;28;20045;-71
2022/10/05 05:40:02;;;;;;;8.13;2.95;;;;;;;;;;4968246;28;20026;-71
2022/10/05 05:42:42;;;;;;;7.90;2.78;;;;;;;;;;4964525;28;20022;-70
2022/10/05 05:45:16;;;;;;;7.35;2.47;;;;;;;;;;4964505;28;20468;-71
2022/10/05 05:47:50;;;;;;;7.45;2.30;;;;;;;;;;4972803;28;20042;-71
2022/10/05 05:50:46;;;;;;;3.78;2.70;;;;;;;;;;4973325;28;20098;-71
2022/10/05 05:53:15;;;;;;;4.25;2.10;;;;;;;;;;4974381;28;20126;-70
2022/10/05 05:55:43;;;;;;;15.13;2.42;;;;;;;;;;4971269;28;20054;-70
2022/10/05 05:58:09;;;;;;;5.80;2.20;;;;;;;;;;4971473;28;20476;-70
2022/10/05 06:00:42;;;;;;;11.98;2.45;;;;;;;;;;4968905;28;20058;-70
2022/10/05 06:03:24;;;;;;;5.28;2.30;;;;;;;;;;4973566;28;20035;-70
2022/10/05 06:06:01;;;;;;;8.77;2.60;;;;;;;;;;4969718;28;20035;-70
2022/10/05 06:08:32;;;;;;;3.83;2.50;;;;;;;;;;4972351;28;20027;-71
2022/10/05 06:11:01;;;;;;;3.55;2.45;;;;;;;;;;4971388;28;20480;-71
2022/10/05 06:13:33;;;;;;;6.68;2.50;;;;;;;;;;4970825;28;20255;-70
2022/10/05 06:16:04;;;;;;;7.95;2.58;;;;;;;;;;4969719;28;20080;-70
2022/10/05 06:18:31;;;;;;;3.80;2.40;;;;;;;;;;4971435;28;20054;-70
2022/10/05 06:21:00;;;;;;;4.32;2.22;;;;;;;;;;4971539;28;20027;-71
2022/10/05 06:23:33;;;;;;;3.90;2.75;;;;;;;;;;4971089;28;20034;-70
2022/10/05 06:26:10;;;;;;;12.60;3.50;;;;;;;;;;4971284;28;20027;-71
2022/10/05 06:28:36;;;;;;;5.05;2.55;;;;;;;;;;4969776;28;20027;-71
2022/10/05 06:31:15;;;;;;;6.97;2.70;;;;;;;;;;4981878;28;20035;-71
2022/10/05 06:33:47;;;;;;;3.92;2.83;;;;;;;;;;4970480;28;20031;-71
2022/10/05 06:36:31;;;;;;;5.25;2.58;;;;;;;;;;4967743;28;20041;-71
2022/10/05 06:39:12;;;;;;;4.40;2.95;;;;;;;;;;4970843;28;20042;-71
2022/10/05 06:42:00;;;;;;;6.37;3.27;;;;;;;;;;4958738;28;20130;-72
2022/10/05 06:44:45;;;;;;;3.88;2.80;;;;;;;;;;4951669;28;20030;-71
2022/10/05 06:47:30;;;;;;;4.80;2.97;;;;;;;;;;4971742;28;20086;-71
2022/10/05 06:50:18;;;;;;;5.95;2.95;;;;;;;;;;4961080;28;20556;-71
2022/10/05 06:53:00;;;;;;;4.80;2.92;;;;;;;;;;4970470;28;20495;-71
2022/10/05 06:55:45;;;;;;;5.78;3.10;;;;;;;;;;4969984;28;20043;-71
2022/10/05 06:58:29;;;;;;;13.75;3.15;;;;;;;;;;4971361;28;20442;-71
2022/10/05 07:01:03;;;;;;;4.47;3.05;;;;;;;;;;4966290;28;20040;-70
2022/10/05 07:03:46;;;;;;;5.43;3.20;;;;;;;;;;4985458;28;20399;-72
2022/10/05 07:06:15;;;;;;;4.18;3.13;;;;;;;;;;4988327;28;20480;-71
2022/10/05 07:08:41;;;;;;;4.65;3.20;;;;;;;;;;4971488;28;20081;-73
2022/10/05 07:11:07;;;;;;;10.25;3.30;;;;;;;;;;4970283;28;20031;-71
2022/10/05 07:13:51;;;;;;;5.60;3.47;;;;;;;;;;4971573;28;20038;-72
2022/10/05 07:16:20;;;;;;;8.60;3.30;;;;;;;;;;4968606;28;20030;-71
2022/10/05 07:18:50;;;;;;;8.25;3.50;;;;;;;;;;4973158;28;20058;-72
2022/10/05 07:21:38;;;;;;;5.60;3.63;;;;;;;;;;4965968;28;20039;-71
2022/10/05 07:24:18;;;;;;;9.07;3.63;;;;;;;;;;4971178;28;20034;-72
2022/10/05 07:26:45;;;;;;;7.45;3.80;;;;;;;;;;4972546;28;20031;-71
2022/10/05 07:29:14;;;;;;;8.00;4.30;;;;;;;;;;4971140;28;20034;-72
2022/10/05 07:31:59;;;;;;;14.88;4.45;;;;;;;;;;4971388;28;20027;-72
2022/10/05 07:34:41;;;;;;;6.10;4.00;;;;;;;;;;4971817;28;20031;-71
2022/10/05 07:40:22;;;;;;;8.05;4.20;;;;;;;;;;4972394;28;20054;-71
2022/10/05 07:42:51;;;;;;;6.35;4.22;;;;;;;;;;4977282;28;20134;-72
2022/10/05 07:45:44;;;;;;;5.10;4.07;;;;;;;;;;4980706;28;20026;-71
2022/10/05 07:48:13;;;;;;;14.30;4.50;;;;;;;;;;4978119;28;20181;-71
2022/10/05 07:50:51;;;;;;;7.85;4.80;;;;;;;;;;4971095;28;20058;-72
2022/10/05 07:53:21;;;;;;;6.28;4.40;;;;;;;;;;4960900;28;20548;-72
2022/10/05 07:55:51;;;;;;;12.60;6.13;;;;;;;;;;4972733;28;20110;-71
2022/10/05 07:58:20;;;;;;;7.18;5.07;;;;;;;;;;4962124;28;20057;-71
2022/10/05 08:01:04;;;;;;;8.10;4.65;;;;;;;;;;4973172;28;20038;-72
2022/10/05 08:03:47;;;;;;;7.03;4.15;;;;;;;;;;4989375;28;20022;-72
2022/10/05 08:06:31;;;;;;;7.65;4.50;;;;;;;;;;4989486;28;20031;-71
2022/10/05 08:09:16;;;;;;;9.80;5.43;;;;;;;;;;4973725;28;20031;-71
2022/10/05 08:11:56;;;;;;;9.48;5.60;;;;;;;;;;4973958;28;20042;-72
2022/10/05 08:14:22;;;;;;;8.77;4.88;;;;;;;;;;4967674;28;20283;-72
2022/10/05 08:16:51;;;;;;;6.43;5.00;;;;;;;;;;4971374;28;20118;-71
2022/10/05 08:19:29;;;;;;;7.20;4.93;;;;;;;;;;4973778;28;20043;-71
2022/10/05 08:21:58;;;;;;;9.80;4.70;;;;;;;;;;4972220;28;20039;-71
2022/10/05 08:24:39;;;;;;;10.30;5.07;;;;;;;;;;4971454;28;20022;-71
2022/10/05 08:27:04;;;;;;;;;;;;;;;;;;4972436;28;20027;-71
2022/10/05 08:29:30;;;;;;;8.13;4.75;;;;;;;;;;4971456;28;19916;-72
2022/10/05 08:31:58;;;;;;;18.05;5.32;;;;;;;;;;4964894;28;20431;-72
2022/10/05 08:34:44;;;;;;;7.47;4.82;;;;;;;;;;4954329;29;20035;-72
2022/10/05 08:37:14;;;;;;;13.40;4.60;;;;;;;;;;4965020;28;20041;-72
2022/10/05 08:39:46;;;;;;;13.32;5.65;;;;;;;;;;4970920;28;20035;-71
2022/10/05 08:42:12;;;;;;;13.57;5.03;;;;;;;;;;4973046;28;20485;-72
2022/10/05 08:44:49;;;;;;;12.95;5.13;;;;;;;;;;4972963;28;20038;-71
2022/10/05 08:47:30;;;;;;;8.68;4.82;;;;;;;;;;4972274;28;20481;-72
2022/10/05 08:49:56;;;;;;;9.88;4.55;;;;;;;;;;4968099;28;20105;-72
2022/10/05 08:52:27;;;;;;;13.85;5.28;;;;;;;;;;4972250;28;20098;-71
2022/10/05 08:54:53;;;;;;;;;;;;;;;;;;4972335;28;20125;-71
2022/10/05 08:57:25;;;;;;;11.93;4.97;;;;;;;;;;4971090;28;20033;-72
2022/10/05 09:00:12;;;;;;;5.90;4.20;;;;;;;;;;4971820;28;20551;-71
2022/10/05 09:03:03;;;;;;;10.95;4.20;;;;;;;;;;4971980;28;20549;-74
2022/10/05 09:05:48;;;;;;;6.55;4.00;;;;;;;;;;4957176;28;20027;-71
2022/10/05 09:08:24;;;;;;;21.85;4.80;;;;;;;;;;4972425;28;20046;-71
2022/10/05 09:11:05;;;;;;;27.60;4.38;;;;;;;;;;4973065;28;20035;-71
2022/10/05 09:13:55;;;;;;;15.80;3.60;;;;;;;;;;4973014;28;20039;-72
2022/10/05 09:16:21;;;;;;;9.00;3.45;;;;;;;;;;4981623;28;20045;-72
2022/10/05 09:19:14;;;;;;;10.20;3.40;;;;;;;;;;4984139;28;20619;-70
2022/10/05 09:21:43;;;;;;;21.23;4.28;;;;;;;;;;4971524;28;20062;-70
2022/10/05 09:24:11;;;;;;;9.70;3.72;;;;;;;;;;4972958;28;20033;-70
2022/10/05 09:26:56;;;;;;;6.70;4.00;;;;;;;;;;4970990;28;20664;-70
2022/10/05 09:29:34;;;;;;;19.05;4.80;;;;;;;;;;4971731;28;20022;-70
2022/10/05 09:32:05;;;;;;;7.80;4.10;;;;;;;;;;4971704;28;20030;-70
2022/10/05 09:34:50;;;;;;;33.83;4.88;;;;;;;;;;4972002;28;20114;-71
2022/10/05 09:37:19;;;;;;;41.75;5.00;;;;;;;;;;4976655;28;20046;-71
2022/10/05 09:40:00;;;;;;;13.52;4.30;;;;;;;;;;4967100;28;20121;-70
2022/10/05 09:42:29;;;;;;;8.60;3.42;;;;;;;;;;4974142;28;20035;-71
2022/10/05 09:45:04;;;;;;;21.13;3.10;;;;;;;;;;4971619;28;20053;-71
2022/10/05 09:47:33;;;;;;;42.60;3.65;;;;;;;;;;4970952;28;20023;-71
2022/10/05 09:49:59;;;;;;;45.17;3.80;;;;;;;;;;4978264;28;20046;-70
2022/10/05 09:52:43;;;;;;;30.77;3.83;;;;;;;;;;4972378;28;20508;-70
2022/10/05 09:55:10;;;;;;;11.38;3.05;;;;;;;;;;4970975;28;20059;-71
2022/10/05 09:57:45;;;;;;;152.88;9.00;;;;;;;;;;4972685;28;20041;-73
2022/10/05 10:00:19;;;;;;;12.15;3.60;;;;;;;;;;4958277;28;20035;-71
2022/10/05 10:03:05;;;;;;;23.17;4.15;;;;;;;;;;4971651;28;20129;-72
2022/10/05 10:05:34;;;;;;;7.32;3.70;;;;;;;;;;4971558;28;20035;-71
2022/10/05 10:08:19;;;;;;;9.50;4.13;;;;;;;;;;4971466;28;20038;-71
2022/10/05 10:11:08;;;;;;;16.10;4.35;;;;;;;;;;4976782;28;20097;-71
2022/10/05 10:13:54;;;;;;;8.77;4.03;;;;;;;;;;4959680;28;20385;-71
2022/10/05 10:16:39;;;;;;;5.88;3.35;;;;;;;;;;4971573;28;20031;-70
2022/10/05 10:19:23;;;;;;;13.27;3.88;;;;;;;;;;4971983;28;20214;-71
2022/10/05 10:22:08;;;;;;;8.57;3.40;;;;;;;;;;4971959;28;20023;-71
2022/10/05 10:24:52;;;;;;;21.52;3.83;;;;;;;;;;4971901;28;20511;-70
2022/10/05 10:27:31;;;;;;;17.90;3.95;;;;;;;;;;4968668;28;20035;-71
2022/10/05 10:30:17;;;;;;;80.68;5.25;;;;;;;;;;4952968;28;20027;-72
2022/10/05 10:33:02;;;;;;;10.77;3.53;;;;;;;;;;4964346;28;20113;-71
2022/10/05 10:35:34;;;;;;;28.05;3.75;;;;;;;;;;4971898;28;20045;-72
2022/10/05 10:38:06;;;;;;;16.90;3.80;;;;;;;;;;4970375;28;20039;-72
2022/10/05 10:40:41;;;;;;;26.33;4.53;;;;;;;;;;4952931;28;20035;-71
2022/10/05 10:43:20;;;;;;;9.93;3.50;;;;;;;;;;4967632;28;20484;-70
2022/10/05 10:46:01;;;;;;;11.82;4.20;;;;;;;;;;4970755;28;20041;-71
2022/10/05 10:48:30;;;;;;;8.73;4.10;;;;;;;;;;4969780;28;20150;-71
2022/10/05 10:50:59;;;;;;;81.47;7.53;;;;;;;;;;4968353;28;20069;-70
2022/10/05 10:53:28;;;;;;;17.88;5.05;;;;;;;;;;4976668;28;20030;-71
2022/10/05 10:56:13;;;;;;;23.02;5.45;;;;;;;;;;4991176;28;20069;-70
2022/10/05 10:58:57;;;;;;;14.70;5.00;;;;;;;;;;4965364;28;20101;-69
2022/10/05 11:01:29;;;;;;;11.57;5.20;;;;;;;;;;4976468;28;20045;-69
2022/10/05 11:04:10;;;;;;;15.05;4.78;;;;;;;;;;4972647;28;20037;-73
2022/10/05 11:06:36;;;;;;;6.45;4.22;;;;;;;;;;4971038;28;20030;-72
2022/10/05 11:09:11;;;;;;;11.98;4.60;;;;;;;;;;4969853;28;20045;-69
2022/10/05 11:11:40;;;;;;;16.75;4.78;;;;;;;;;;4970844;28;20026;-71
2022/10/05 11:14:20;;;;;;;14.07;3.97;;;;;;;;;;4972705;28;20031;-71
2022/10/05 11:16:49;;;;;;;12.02;3.67;;;;;;;;;;4984378;28;20042;-70
2022/10/05 11:19:24;;;;;;;7.93;3.75;;;;;;;;;;4972043;28;20109;-70
2022/10/05 11:22:08;;;;;;;12.13;3.40;;;;;;;;;;4970159;28;20107;-71
2022/10/05 11:24:37;;;;;;;7.18;3.30;;;;;;;;;;4982757;28;20026;-71
2022/10/05 11:27:12;;;;;;;8.88;3.45;;;;;;;;;;4986208;28;20076;-71
2022/10/05 11:29:38;;;;;;;27.17;4.70;;;;;;;;;;4975960;28;20546;-72
2022/10/05 11:32:16;;;;;;;17.73;3.35;;;;;;;;;;4969673;28;20031;-70
2022/10/05 11:34:42;;;;;;;8.02;3.40;;;;;;;;;;4966387;28;20431;-71
2022/10/05 11:37:11;;;;;;;14.68;4.30;;;;;;;;;;4970067;28;20480;-70
2022/10/05 11:39:44;;;;;;;8.48;3.75;;;;;;;;;;4970575;28;20037;-70
2022/10/05 11:42:29;;;;;;;9.90;3.20;;;;;;;;;;4970302;28;20474;-70
2022/10/05 11:45:14;;;;;;;9.02;3.40;;;;;;;;;;4984812;28;20525;-70
2022/10/05 11:47:48;;;;;;;59.33;5.53;;;;;;;;;;4969326;28;20035;-72
2022/10/05 11:50:14;;;;;;;8.70;4.20;;;;;;;;;;4972246;28;20042;-71
2022/10/05 11:52:46;;;;;;;13.40;3.95;;;;;;;;;;4968716;28;20039;-71
2022/10/05 11:55:19;;;;;;;26.30;4.13;;;;;;;;;;4970452;28;20027;-71
2022/10/05 11:57:54;;;;;;;10.38;3.45;;;;;;;;;;4969191;28;20035;-71
2022/10/05 12:00:21;;;;;;;13.38;3.88;;;;;;;;;;4969861;28;20058;-71
2022/10/05 12:03:12;;;;;;;14.65;4.40;;;;;;;;;;4969257;28;20081;-69
2022/10/05 12:06:02;;;;;;;22.33;4.20;;;;;;;;;;4965988;28;20589;-71
2022/10/05 12:08:46;;;;;;;11.65;4.28;;;;;;;;;;4968647;28;20532;-70
2022/10/05 12:11:27;;;;;;;10.27;3.55;;;;;;;;;;4974943;28;20033;-71
2022/10/05 12:14:15;;;;;;;7.93;4.07;;;;;;;;;;4970508;28;20533;-70
2022/10/05 12:16:41;;;;;;;7.10;3.53;;;;;;;;;;4971672;28;20453;-70
2022/10/05 12:19:28;;;;;;;9.70;3.90;;;;;;;;;;4977173;28;20023;-70
2022/10/05 12:21:54;;;;;;;30.15;5.05;;;;;;;;;;4950492;28;20150;-70
2022/10/05 12:24:24;;;;;;;15.63;3.75;;;;;;;;;;4951050;29;20035;-70
2022/10/05 12:27:02;;;;;;;21.10;3.90;;;;;;;;;;4959121;28;20110;-70
2022/10/05 12:29:28;;;;;;;17.13;3.95;;;;;;;;;;4971718;28;20654;-70
2022/10/05 12:32:01;;;;;;;6.35;3.50;;;;;;;;;;4975503;28;20804;-71
2022/10/05 12:34:34;;;;;;;24.50;4.95;;;;;;;;;;4975555;28;20043;-70
2022/10/05 12:37:11;;;;;;;12.65;4.80;;;;;;;;;;4969078;28;20045;-72
2022/10/05 12:39:53;;;;;;;11.02;4.57;;;;;;;;;;4970834;28;20038;-70
2022/10/05 12:42:28;;;;;;;12.32;3.65;;;;;;;;;;4972112;28;20031;-70
2022/10/05 12:45:12;;;;;;;35.95;5.90;;;;;;;;;;4971441;28;20023;-70
2022/10/05 12:47:47;;;;;;;8.13;4.15;;;;;;;;;;4972079;28;20109;-70
2022/10/05 12:50:22;;;;;;;15.27;4.10;;;;;;;;;;4979596;28;20035;-69
2022/10/05 12:52:48;;;;;;;11.30;3.72;;;;;;;;;;4971762;28;20026;-70
2022/10/05 12:55:25;;;;;;;6.35;3.55;;;;;;;;;;4979638;28;20572;-70
2022/10/05 12:58:09;;;;;;;9.93;4.20;;;;;;;;;;4973330;28;20350;-69
2022/10/05 13:00:38;;;;;;;12.48;4.32;;;;;;;;;;4973583;28;20023;-70
2022/10/05 13:03:12;;;;;;;7.65;4.05;;;;;;;;;;4984473;28;20026;-71
2022/10/05 13:05:46;;;;;;;10.02;4.80;;;;;;;;;;4992467;28;20022;-70
2022/10/05 13:08:23;;;;;;;8.75;4.35;;;;;;;;;;4972292;28;20019;-70
2022/10/05 13:11:08;;;;;;;7.38;4.40;;;;;;;;;;4971604;28;20130;-71
2022/10/05 13:13:42;;;;;;;7.80;4.47;;;;;;;;;;4972888;28;20074;-70
2022/10/05 13:16:16;;;;;;;17.25;4.43;;;;;;;;;;4976899;28;20031;-71
2022/10/05 13:18:55;;;;;;;11.82;5.25;;;;;;;;;;4971607;28;20031;-70
2022/10/05 13:21:27;;;;;;;12.02;4.50;;;;;;;;;;4972263;28;20049;-71
2022/10/05 13:23:56;;;;;;;21.45;4.95;;;;;;;;;;4972828;28;20027;-70
2022/10/05 13:26:33;;;;;;;14.43;4.65;;;;;;;;;;4970649;28;20500;-70
2022/10/05 13:28:59;;;;;;;10.20;4.70;;;;;;;;;;4972359;28;20054;-70
2022/10/05 13:31:32;;;;;;;23.85;5.32;;;;;;;;;;4972086;28;20113;-69
2022/10/05 13:34:13;;;;;;;14.02;4.50;;;;;;;;;;4972975;28;20034;-70
2022/10/05 13:36:59;;;;;;;11.55;4.40;;;;;;;;;;4984499;28;20030;-72
2022/10/05 13:39:48;;;;;;;13.00;4.82;;;;;;;;;;4972036;28;20121;-69
2022/10/05 13:42:14;;;;;;;8.32;4.68;;;;;;;;;;4974310;28;20400;-69
2022/10/05 13:44:58;;;;;;;10.52;4.70;;;;;;;;;;4973446;28;20023;-70
2022/10/05 13:47:33;;;;;;;11.20;4.30;;;;;;;;;;4975615;28;20026;-69
2022/10/05 13:50:03;;;;;;;7.32;4.40;;;;;;;;;;4974766;28;20057;-70
2022/10/05 13:52:45;;;;;;;11.60;4.55;;;;;;;;;;4972259;28;20396;-70
2022/10/05 13:55:20;;;;;;;17.15;5.20;;;;;;;;;;4972184;28;20488;-71
2022/10/05 13:58:02;;;;;;;18.23;4.57;;;;;;;;;;4970767;28;20039;-70
2022/10/05 14:00:29;;;;;;;13.35;4.70;;;;;;;;;;4970991;28;20043;-71
2022/10/05 14:02:56;;;;;;;13.98;5.03;;;;;;;;;;4968845;28;20034;-70
2022/10/05 14:05:22;;;;;;;11.80;3.85;;;;;;;;;;4975814;28;20022;-69
2022/10/05 14:07:57;;;;;;;10.63;3.85;;;;;;;;;;4983040;28;20022;-68
2022/10/05 14:10:37;;;;;;;31.88;4.50;;;;;;;;;;4975680;28;20027;-69
2022/10/05 14:13:12;;;;;;;18.83;4.47;;;;;;;;;;4968794;28;20034;-69
2022/10/05 14:15:38;;;;;;;9.07;3.70;;;;;;;;;;4969226;28;20100;-69
2022/10/05 14:18:23;;;;;;;10.07;3.97;;;;;;;;;;4967912;28;20772;-70
2022/10/05 14:21:03;;;;;;;10.85;4.25;;;;;;;;;;4969529;28;20046;-69
2022/10/05 14:23:30;;;;;;;10.68;4.15;;;;;;;;;;4979492;28;20033;-71
2022/10/05 14:25:56;;;;;;;11.98;4.40;;;;;;;;;;4971165;28;20035;-68
2022/10/05 14:28:32;;;;;;;10.85;3.95;;;;;;;;;;4971206;28;20502;-68
2022/10/05 14:31:14;;;;;;;8.85;3.63;;;;;;;;;;4969199;28;20039;-69
2022/10/05 14:33:40;;;;;;;37.80;4.68;;;;;;;;;;4970411;28;20066;-69
2022/10/05 14:36:31;;;;;;;17.20;4.45;;;;;;;;;;4970821;28;20114;-70
2022/10/05 14:39:00;;;;;;;11.48;4.10;;;;;;;;;;4970333;28;20534;-69
2022/10/05 14:41:28;;;;;;;8.52;4.07;;;;;;;;;;4969235;28;20039;-70
2022/10/05 14:44:01;;;;;;;24.58;4.63;;;;;;;;;;4973764;28;20491;-69
2022/10/05 14:46:28;;;;;;;22.60;4.38;;;;;;;;;;4970850;28;20484;-72
2022/10/05 14:49:06;;;;;;;23.20;5.00;;;;;;;;;;4972928;28;20030;-70
2022/10/05 14:51:33;;;;;;;60.72;4.97;;;;;;;;;;4989704;28;20093;-70
2022/10/05 14:54:00;;;;;;;16.50;3.75;;;;;;;;;;4973521;28;20511;-71
2022/10/05 14:56:26;;;;;;;18.02;3.58;;;;;;;;;;4975726;28;20080;-70
2022/10/05 14:59:14;;;;;;;21.33;3.75;;;;;;;;;;4973108;28;20034;-69
2022/10/05 15:01:48;;;;;;;23.92;4.30;;;;;;;;;;4970796;28;20023;-70
2022/10/05 15:04:23;;;;;;;19.23;4.38;;;;;;;;;;4971304;28;20452;-72
2022/10/05 15:07:04;;;;;;;9.90;4.10;;;;;;;;;;4971329;28;20499;-69
2022/10/05 15:09:30;;;;;;;;;;;;;;;;;;4959960;28;20023;-70
2022/10/05 15:11:57;;;;;;;31.67;4.85;;;;;;;;;;4969446;28;19913;-70
2022/10/05 15:14:30;;;;;;;26.33;3.85;;;;;;;;;;4970898;28;20031;-71
2022/10/05 15:17:16;;;;;;;9.48;3.20;;;;;;;;;;4979830;28;20034;-71
2022/10/05 15:19:55;;;;;;;12.52;3.00;;;;;;;;;;4965070;28;20094;-70
2022/10/05 15:22:28;;;;;;;11.95;3.15;;;;;;;;;;4976491;28;20544;-70